EGXW/WTN METAR and TAF weather

Enter ICAO airport designator
Station Type Date Time Source
EGXW METAR 2022/06/30 13:20 UTC NOAA

EGXW 301320Z 22006KT 9999 FEW040 BKN250 19/07 Q1010 NOSIG RMK BLU BLU


Station Type Date Time Source
EGXW Decoded METAR 2022/06/30 13:20 UTC NOAA

Waddington, United Kingdom (EGXW) 53-10N 000-31W 0M
Jun 30, 2022 - 09:20 AM EDT / 2022.06.30 1320 UTC
Wind: from the SW (220 degrees) at 7 MPH (6 KT):0
Visibility: greater than 7 mile(s):0
Sky conditions: mostly cloudy
Temperature: 66 F (19 C)
Dew Point: 44 F (7 C)
Relative Humidity: 45%
Pressure (altimeter): 29.83 in. Hg (1010 hPa)
ob: EGXW 301320Z 22006KT 9999 FEW040 BKN250 19/07 Q1010 NOSIG RMK BLU BLU
cycle: 13

Station Type Date Time Source
EGXW TAF 2022/06/30 15:34 UTC NOAA

TAF EGXW 301329Z 3015/0109 19008KT 9999 SCT040 PROB30
TEMPO 3015/3019 5000 SHRA PROB30
TEMPO 3023/0104 3000 +SHRA +SHGS BKN022CB PROB30
TEMPO 0104/0109 5000 SHRA BKN012CB

Example: see airport list